sensor_id;sensor_type;location;lat;lon;timestamp;temperature;humidity
31729;DHT22;18309;43.658;1.312;2023-12-04T00:01:19;8.50;93.80
31729;DHT22;18309;43.658;1.312;2023-12-04T00:03:45;8.50;93.90
31729;DHT22;18309;43.658;1.312;2023-12-04T00:06:11;8.50;93.40
31729;DHT22;18309;43.658;1.312;2023-12-04T00:08:37;8.50;93.30
31729;DHT22;18309;43.658;1.312;2023-12-04T00:11:04;8.50;92.90
31729;DHT22;18309;43.658;1.312;2023-12-04T00:13:30;8.50;93.10
31729;DHT22;18309;43.658;1.312;2023-12-04T00:15:56;8.50;93.00
31729;DHT22;18309;43.658;1.312;2023-12-04T00:18:23;8.50;93.20
31729;DHT22;18309;43.658;1.312;2023-12-04T00:20:48;8.50;93.20
31729;DHT22;18309;43.658;1.312;2023-12-04T00:23:14;8.50;93.30
31729;DHT22;18309;43.658;1.312;2023-12-04T00:25:40;8.50;93.40
31729;DHT22;18309;43.658;1.312;2023-12-04T00:28:05;8.40;93.30
31729;DHT22;18309;43.658;1.312;2023-12-04T00:30:31;8.40;93.40
31729;DHT22;18309;43.658;1.312;2023-12-04T00:32:57;8.40;93.20
31729;DHT22;18309;43.658;1.312;2023-12-04T00:35:22;8.40;93.60
31729;DHT22;18309;43.658;1.312;2023-12-04T00:37:48;8.40;93.70
31729;DHT22;18309;43.658;1.312;2023-12-04T00:40:14;8.40;93.30
31729;DHT22;18309;43.658;1.312;2023-12-04T00:42:40;8.40;93.70
31729;DHT22;18309;43.658;1.312;2023-12-04T00:45:06;8.40;93.90
31729;DHT22;18309;43.658;1.312;2023-12-04T00:47:32;8.40;93.70
31729;DHT22;18309;43.658;1.312;2023-12-04T00:49:58;8.40;93.80
31729;DHT22;18309;43.658;1.312;2023-12-04T00:52:24;8.40;94.20
31729;DHT22;18309;43.658;1.312;2023-12-04T00:54:49;8.40;94.10
31729;DHT22;18309;43.658;1.312;2023-12-04T00:57:15;8.40;94.00
31729;DHT22;18309;43.658;1.312;2023-12-04T00:59:41;8.40;94.10
31729;DHT22;18309;43.658;1.312;2023-12-04T01:02:07;8.30;94.20
31729;DHT22;18309;43.658;1.312;2023-12-04T01:04:33;8.30;94.20
31729;DHT22;18309;43.658;1.312;2023-12-04T01:06:59;8.30;94.40
31729;DHT22;18309;43.658;1.312;2023-12-04T01:09:25;8.40;94.50
31729;DHT22;18309;43.658;1.312;2023-12-04T01:11:54;8.40;94.50
31729;DHT22;18309;43.658;1.312;2023-12-04T01:14:20;8.40;94.80
31729;DHT22;18309;43.658;1.312;2023-12-04T01:16:46;8.40;94.90
31729;DHT22;18309;43.658;1.312;2023-12-04T01:19:13;8.30;95.20
31729;DHT22;18309;43.658;1.312;2023-12-04T01:21:38;8.30;95.20
31729;DHT22;18309;43.658;1.312;2023-12-04T01:24:04;8.30;95.50
31729;DHT22;18309;43.658;1.312;2023-12-04T01:26:30;8.30;95.80
31729;DHT22;18309;43.658;1.312;2023-12-04T01:28:56;8.30;96.00
31729;DHT22;18309;43.658;1.312;2023-12-04T01:31:22;8.30;96.00
31729;DHT22;18309;43.658;1.312;2023-12-04T01:33:50;8.30;96.10
31729;DHT22;18309;43.658;1.312;2023-12-04T01:36:16;8.30;96.30
31729;DHT22;18309;43.658;1.312;2023-12-04T01:38:42;8.30;96.60
31729;DHT22;18309;43.658;1.312;2023-12-04T01:41:08;8.30;96.70
31729;DHT22;18309;43.658;1.312;2023-12-04T01:43:33;8.30;96.90
31729;DHT22;18309;43.658;1.312;2023-12-04T01:46:01;8.30;97.10
31729;DHT22;18309;43.658;1.312;2023-12-04T01:48:27;8.30;97.40
31729;DHT22;18309;43.658;1.312;2023-12-04T01:50:54;8.30;97.60
31729;DHT22;18309;43.658;1.312;2023-12-04T01:53:21;8.30;97.80
31729;DHT22;18309;43.658;1.312;2023-12-04T01:55:47;8.30;98.20
31729;DHT22;18309;43.658;1.312;2023-12-04T01:58:13;8.30;98.20
31729;DHT22;18309;43.658;1.312;2023-12-04T02:00:39;8.30;98.40
31729;DHT22;18309;43.658;1.312;2023-12-04T02:03:05;8.30;98.60
31729;DHT22;18309;43.658;1.312;2023-12-04T02:05:31;8.30;98.80
31729;DHT22;18309;43.658;1.312;2023-12-04T02:07:57;8.30;98.90
31729;DHT22;18309;43.658;1.312;2023-12-04T02:10:23;8.30;99.00
31729;DHT22;18309;43.658;1.312;2023-12-04T02:12:50;8.30;99.30
31729;DHT22;18309;43.658;1.312;2023-12-04T02:15:15;8.30;99.40
31729;DHT22;18309;43.658;1.312;2023-12-04T02:17:45;8.30;99.50
31729;DHT22;18309;43.658;1.312;2023-12-04T02:20:14;8.30;99.70
31729;DHT22;18309;43.658;1.312;2023-12-04T02:22:40;8.30;99.90
31729;DHT22;18309;43.658;1.312;2023-12-04T02:25:08;8.30;99.90
31729;DHT22;18309;43.658;1.312;2023-12-04T02:27:49;8.30;99.90
31729;DHT22;18309;43.658;1.312;2023-12-04T02:30:18;8.30;99.90
31729;DHT22;18309;43.658;1.312;2023-12-04T02:32:47;8.30;99.90
31729;DHT22;18309;43.658;1.312;2023-12-04T02:35:21;8.30;99.90
31729;DHT22;18309;43.658;1.312;2023-12-04T02:37:48;8.30;99.90
31729;DHT22;18309;43.658;1.312;2023-12-04T02:40:14;8.30;99.90
31729;DHT22;18309;43.658;1.312;2023-12-04T02:42:40;8.30;99.90
31729;DHT22;18309;43.658;1.312;2023-12-04T02:45:07;8.30;99.90
31729;DHT22;18309;43.658;1.312;2023-12-04T02:47:33;8.30;99.90
31729;DHT22;18309;43.658;1.312;2023-12-04T02:49:58;8.30;99.90
31729;DHT22;18309;43.658;1.312;2023-12-04T02:52:24;8.30;99.90
31729;DHT22;18309;43.658;1.312;2023-12-04T02:54:49;8.40;99.90
31729;DHT22;18309;43.658;1.312;2023-12-04T02:57:15;8.40;99.90
31729;DHT22;18309;43.658;1.312;2023-12-04T02:59:42;8.40;99.90
31729;DHT22;18309;43.658;1.312;2023-12-04T03:02:07;8.30;99.90
31729;DHT22;18309;43.658;1.312;2023-12-04T03:04:34;8.40;99.90
31729;DHT22;18309;43.658;1.312;2023-12-04T03:07:00;8.40;99.90
31729;DHT22;18309;43.658;1.312;2023-12-04T03:09:25;8.40;99.90
31729;DHT22;18309;43.658;1.312;2023-12-04T03:11:51;8.40;99.90
31729;DHT22;18309;43.658;1.312;2023-12-04T03:14:17;8.40;99.90
31729;DHT22;18309;43.658;1.312;2023-12-04T03:16:42;8.40;99.90
31729;DHT22;18309;43.658;1.312;2023-12-04T03:19:08;8.40;99.90
31729;DHT22;18309;43.658;1.312;2023-12-04T03:21:34;8.40;99.90
31729;DHT22;18309;43.658;1.312;2023-12-04T03:23:59;8.40;99.90
31729;DHT22;18309;43.658;1.312;2023-12-04T03:26:25;8.40;99.90
31729;DHT22;18309;43.658;1.312;2023-12-04T03:28:51;8.40;99.90
31729;DHT22;18309;43.658;1.312;2023-12-04T03:31:16;8.40;99.90
31729;DHT22;18309;43.658;1.312;2023-12-04T03:33:42;8.40;99.90
31729;DHT22;18309;43.658;1.312;2023-12-04T03:36:08;8.40;99.90
31729;DHT22;18309;43.658;1.312;2023-12-04T03:38:33;8.40;99.90
31729;DHT22;18309;43.658;1.312;2023-12-04T03:40:59;8.40;99.90
31729;DHT22;18309;43.658;1.312;2023-12-04T03:43:25;8.40;99.90
31729;DHT22;18309;43.658;1.312;2023-12-04T03:45:50;8.40;99.90
31729;DHT22;18309;43.658;1.312;2023-12-04T03:48:16;8.40;99.90
31729;DHT22;18309;43.658;1.312;2023-12-04T03:50:42;8.40;99.90
31729;DHT22;18309;43.658;1.312;2023-12-04T03:53:07;8.40;99.90
31729;DHT22;18309;43.658;1.312;2023-12-04T03:55:33;8.50;99.90
31729;DHT22;18309;43.658;1.312;2023-12-04T03:57:59;8.40;99.90
31729;DHT22;18309;43.658;1.312;2023-12-04T04:00:24;8.50;99.90
31729;DHT22;18309;43.658;1.312;2023-12-04T04:02:50;8.50;99.90
31729;DHT22;18309;43.658;1.312;2023-12-04T04:05:16;8.40;99.90
31729;DHT22;18309;43.658;1.312;2023-12-04T04:07:42;8.50;99.90
31729;DHT22;18309;43.658;1.312;2023-12-04T04:10:08;8.50;99.90
31729;DHT22;18309;43.658;1.312;2023-12-04T04:12:34;8.50;99.90
31729;DHT22;18309;43.658;1.312;2023-12-04T04:15:01;8.50;99.90
31729;DHT22;18309;43.658;1.312;2023-12-04T04:17:27;8.50;99.90
31729;DHT22;18309;43.658;1.312;2023-12-04T04:19:54;8.50;99.90
31729;DHT22;18309;43.658;1.312;2023-12-04T04:22:21;8.40;99.90
31729;DHT22;18309;43.658;1.312;2023-12-04T04:24:48;8.40;99.90
31729;DHT22;18309;43.658;1.312;2023-12-04T04:27:14;8.40;99.90
31729;DHT22;18309;43.658;1.312;2023-12-04T04:29:41;8.40;99.90
31729;DHT22;18309;43.658;1.312;2023-12-04T04:32:06;8.40;99.90
31729;DHT22;18309;43.658;1.312;2023-12-04T04:34:32;8.40;99.90
31729;DHT22;18309;43.658;1.312;2023-12-04T04:36:58;8.50;99.90
31729;DHT22;18309;43.658;1.312;2023-12-04T04:39:23;8.40;99.90
31729;DHT22;18309;43.658;1.312;2023-12-04T04:41:49;8.40;99.90
31729;DHT22;18309;43.658;1.312;2023-12-04T04:44:15;8.40;99.90
31729;DHT22;18309;43.658;1.312;2023-12-04T04:46:40;8.40;99.90
31729;DHT22;18309;43.658;1.312;2023-12-04T04:49:06;8.40;99.90
31729;DHT22;18309;43.658;1.312;2023-12-04T04:51:33;8.40;99.90
31729;DHT22;18309;43.658;1.312;2023-12-04T04:54:00;8.40;99.90
31729;DHT22;18309;43.658;1.312;2023-12-04T04:56:25;8.40;99.90
31729;DHT22;18309;43.658;1.312;2023-12-04T04:58:52;8.40;99.90
31729;DHT22;18309;43.658;1.312;2023-12-04T05:01:17;8.40;99.90
31729;DHT22;18309;43.658;1.312;2023-12-04T05:03:43;8.40;99.90
31729;DHT22;18309;43.658;1.312;2023-12-04T05:06:09;8.40;99.90
31729;DHT22;18309;43.658;1.312;2023-12-04T05:08:35;8.40;99.90
31729;DHT22;18309;43.658;1.312;2023-12-04T05:11:00;8.30;99.90
31729;DHT22;18309;43.658;1.312;2023-12-04T05:13:26;8.30;99.90
31729;DHT22;18309;43.658;1.312;2023-12-04T05:15:52;8.40;99.90
31729;DHT22;18309;43.658;1.312;2023-12-04T05:18:17;8.30;99.90
31729;DHT22;18309;43.658;1.312;2023-12-04T05:20:43;8.30;99.90
31729;DHT22;18309;43.658;1.312;2023-12-04T05:23:09;8.30;99.90
31729;DHT22;18309;43.658;1.312;2023-12-04T05:25:34;8.30;99.90
31729;DHT22;18309;43.658;1.312;2023-12-04T05:28:02;8.30;99.90
31729;DHT22;18309;43.658;1.312;2023-12-04T05:30:27;8.20;99.90
31729;DHT22;18309;43.658;1.312;2023-12-04T05:32:53;8.20;99.90
31729;DHT22;18309;43.658;1.312;2023-12-04T05:35:20;8.20;99.90
31729;DHT22;18309;43.658;1.312;2023-12-04T05:37:46;8.20;99.90
31729;DHT22;18309;43.658;1.312;2023-12-04T05:40:12;8.20;99.90
31729;DHT22;18309;43.658;1.312;2023-12-04T05:42:38;8.20;99.90
31729;DHT22;18309;43.658;1.312;2023-12-04T05:45:04;8.20;99.90
31729;DHT22;18309;43.658;1.312;2023-12-04T05:47:32;8.10;99.90
31729;DHT22;18309;43.658;1.312;2023-12-04T05:49:58;8.20;99.90
31729;DHT22;18309;43.658;1.312;2023-12-04T05:52:23;8.20;99.90
31729;DHT22;18309;43.658;1.312;2023-12-04T05:54:49;8.20;99.90
31729;DHT22;18309;43.658;1.312;2023-12-04T05:57:15;8.20;99.90
31729;DHT22;18309;43.658;1.312;2023-12-04T05:59:41;8.20;99.90
31729;DHT22;18309;43.658;1.312;2023-12-04T06:02:07;8.20;99.90
31729;DHT22;18309;43.658;1.312;2023-12-04T06:04:33;8.20;99.90
31729;DHT22;18309;43.658;1.312;2023-12-04T06:06:58;8.20;99.90
31729;DHT22;18309;43.658;1.312;2023-12-04T06:09:24;8.20;99.90
31729;DHT22;18309;43.658;1.312;2023-12-04T06:11:50;8.20;99.90
31729;DHT22;18309;43.658;1.312;2023-12-04T06:14:16;8.20;99.90
31729;DHT22;18309;43.658;1.312;2023-12-04T06:16:42;8.20;99.90
31729;DHT22;18309;43.658;1.312;2023-12-04T06:19:08;8.20;99.90
31729;DHT22;18309;43.658;1.312;2023-12-04T06:21:33;8.20;99.90
31729;DHT22;18309;43.658;1.312;2023-12-04T06:23:59;8.30;99.90
31729;DHT22;18309;43.658;1.312;2023-12-04T06:26:25;8.30;99.90
31729;DHT22;18309;43.658;1.312;2023-12-04T06:28:51;8.30;99.90
31729;DHT22;18309;43.658;1.312;2023-12-04T06:31:17;8.30;99.90
31729;DHT22;18309;43.658;1.312;2023-12-04T06:33:43;8.30;99.90
31729;DHT22;18309;43.658;1.312;2023-12-04T06:36:11;8.30;99.90
31729;DHT22;18309;43.658;1.312;2023-12-04T06:38:40;8.30;99.90
31729;DHT22;18309;43.658;1.312;2023-12-04T06:41:07;8.30;99.90
31729;DHT22;18309;43.658;1.312;2023-12-04T06:43:33;8.30;99.90
31729;DHT22;18309;43.658;1.312;2023-12-04T06:45:59;8.30;99.90
31729;DHT22;18309;43.658;1.312;2023-12-04T06:48:25;8.30;99.90
31729;DHT22;18309;43.658;1.312;2023-12-04T06:50:52;8.30;99.90
31729;DHT22;18309;43.658;1.312;2023-12-04T06:53:18;8.30;99.90
31729;DHT22;18309;43.658;1.312;2023-12-04T06:55:44;8.40;99.90
31729;DHT22;18309;43.658;1.312;2023-12-04T06:58:10;8.40;99.90
31729;DHT22;18309;43.658;1.312;2023-12-04T07:00:35;8.40;99.90
31729;DHT22;18309;43.658;1.312;2023-12-04T07:03:01;8.40;99.90
31729;DHT22;18309;43.658;1.312;2023-12-04T07:05:27;8.40;99.90
31729;DHT22;18309;43.658;1.312;2023-12-04T07:07:52;8.40;99.90
31729;DHT22;18309;43.658;1.312;2023-12-04T07:10:18;8.40;99.90
31729;DHT22;18309;43.658;1.312;2023-12-04T07:12:44;8.40;99.90
31729;DHT22;18309;43.658;1.312;2023-12-04T07:15:11;8.40;99.90
31729;DHT22;18309;43.658;1.312;2023-12-04T07:17:37;8.40;99.90
31729;DHT22;18309;43.658;1.312;2023-12-04T07:20:03;8.40;99.90
31729;DHT22;18309;43.658;1.312;2023-12-04T07:22:32;8.40;99.90
31729;DHT22;18309;43.658;1.312;2023-12-04T07:24:58;8.40;99.90
31729;DHT22;18309;43.658;1.312;2023-12-04T07:27:24;8.40;99.90
31729;DHT22;18309;43.658;1.312;2023-12-04T07:29:49;8.40;99.90
31729;DHT22;18309;43.658;1.312;2023-12-04T07:32:15;8.40;99.90
31729;DHT22;18309;43.658;1.312;2023-12-04T07:34:41;8.40;99.90
31729;DHT22;18309;43.658;1.312;2023-12-04T07:37:06;8.40;99.90
31729;DHT22;18309;43.658;1.312;2023-12-04T07:39:32;8.40;99.90
31729;DHT22;18309;43.658;1.312;2023-12-04T07:41:58;8.40;99.90
31729;DHT22;18309;43.658;1.312;2023-12-04T07:44:24;8.30;99.90
31729;DHT22;18309;43.658;1.312;2023-12-04T07:46:49;8.20;99.90
31729;DHT22;18309;43.658;1.312;2023-12-04T07:49:15;8.10;99.90
31729;DHT22;18309;43.658;1.312;2023-12-04T07:51:41;8.00;99.90
31729;DHT22;18309;43.658;1.312;2023-12-04T07:54:06;8.00;99.90
31729;DHT22;18309;43.658;1.312;2023-12-04T07:56:32;8.00;99.90
31729;DHT22;18309;43.658;1.312;2023-12-04T07:58:58;8.00;99.90
31729;DHT22;18309;43.658;1.312;2023-12-04T08:01:23;7.90;99.90
31729;DHT22;18309;43.658;1.312;2023-12-04T08:03:49;7.90;99.90
31729;DHT22;18309;43.658;1.312;2023-12-04T08:06:15;7.90;99.90
31729;DHT22;18309;43.658;1.312;2023-12-04T08:08:44;7.90;99.90
31729;DHT22;18309;43.658;1.312;2023-12-04T08:11:10;7.90;99.90
31729;DHT22;18309;43.658;1.312;2023-12-04T08:13:38;7.90;99.90
31729;DHT22;18309;43.658;1.312;2023-12-04T08:16:04;7.90;99.90
31729;DHT22;18309;43.658;1.312;2023-12-04T08:18:30;7.90;99.90
31729;DHT22;18309;43.658;1.312;2023-12-04T08:20:55;7.90;99.90
31729;DHT22;18309;43.658;1.312;2023-12-04T08:23:21;7.90;99.90
31729;DHT22;18309;43.658;1.312;2023-12-04T08:25:46;8.00;99.90
31729;DHT22;18309;43.658;1.312;2023-12-04T08:28:12;8.00;99.90
31729;DHT22;18309;43.658;1.312;2023-12-04T08:30:38;8.00;99.90
31729;DHT22;18309;43.658;1.312;2023-12-04T08:33:04;8.00;99.90
31729;DHT22;18309;43.658;1.312;2023-12-04T08:35:30;8.00;99.90
31729;DHT22;18309;43.658;1.312;2023-12-04T08:37:55;8.00;99.90
31729;DHT22;18309;43.658;1.312;2023-12-04T08:40:21;8.10;99.90
31729;DHT22;18309;43.658;1.312;2023-12-04T08:42:47;8.10;99.90
31729;DHT22;18309;43.658;1.312;2023-12-04T08:45:13;8.20;99.90
31729;DHT22;18309;43.658;1.312;2023-12-04T08:47:38;8.20;99.90
31729;DHT22;18309;43.658;1.312;2023-12-04T08:50:05;8.10;99.90
31729;DHT22;18309;43.658;1.312;2023-12-04T08:52:31;8.10;99.90
31729;DHT22;18309;43.658;1.312;2023-12-04T08:54:56;8.10;99.90
31729;DHT22;18309;43.658;1.312;2023-12-04T08:57:22;8.10;99.90
31729;DHT22;18309;43.658;1.312;2023-12-04T08:59:47;8.10;99.90
31729;DHT22;18309;43.658;1.312;2023-12-04T09:02:13;8.20;99.90
31729;DHT22;18309;43.658;1.312;2023-12-04T09:04:40;8.20;99.90
31729;DHT22;18309;43.658;1.312;2023-12-04T09:07:06;8.20;99.90
31729;DHT22;18309;43.658;1.312;2023-12-04T09:09:31;8.30;99.90
31729;DHT22;18309;43.658;1.312;2023-12-04T09:11:57;8.30;99.90
31729;DHT22;18309;43.658;1.312;2023-12-04T09:14:23;8.30;99.90
31729;DHT22;18309;43.658;1.312;2023-12-04T09:16:49;8.30;99.90
31729;DHT22;18309;43.658;1.312;2023-12-04T09:19:14;8.40;99.90
31729;DHT22;18309;43.658;1.312;2023-12-04T09:21:40;8.40;99.90
31729;DHT22;18309;43.658;1.312;2023-12-04T09:24:09;8.40;99.90
31729;DHT22;18309;43.658;1.312;2023-12-04T09:26:35;8.50;99.90
31729;DHT22;18309;43.658;1.312;2023-12-04T09:29:01;8.50;99.90
31729;DHT22;18309;43.658;1.312;2023-12-04T09:31:26;8.50;99.90
31729;DHT22;18309;43.658;1.312;2023-12-04T09:33:52;8.50;99.90
31729;DHT22;18309;43.658;1.312;2023-12-04T09:36:18;8.60;99.90
31729;DHT22;18309;43.658;1.312;2023-12-04T09:38:43;8.60;99.90
31729;DHT22;18309;43.658;1.312;2023-12-04T09:41:10;8.70;99.90
31729;DHT22;18309;43.658;1.312;2023-12-04T09:43:37;8.80;99.90
31729;DHT22;18309;43.658;1.312;2023-12-04T09:46:04;8.80;99.90
31729;DHT22;18309;43.658;1.312;2023-12-04T09:48:30;8.90;99.90
31729;DHT22;18309;43.658;1.312;2023-12-04T09:50:57;9.00;99.90
31729;DHT22;18309;43.658;1.312;2023-12-04T09:53:23;9.00;99.90
31729;DHT22;18309;43.658;1.312;2023-12-04T09:55:50;9.10;99.90
31729;DHT22;18309;43.658;1.312;2023-12-04T09:58:19;9.10;99.90
31729;DHT22;18309;43.658;1.312;2023-12-04T10:00:46;9.10;99.90
31729;DHT22;18309;43.658;1.312;2023-12-04T10:03:13;9.10;99.90
31729;DHT22;18309;43.658;1.312;2023-12-04T10:05:43;9.10;99.90
31729;DHT22;18309;43.658;1.312;2023-12-04T10:08:10;9.20;99.90
31729;DHT22;18309;43.658;1.312;2023-12-04T10:10:36;9.20;99.90
31729;DHT22;18309;43.658;1.312;2023-12-04T10:13:01;9.20;99.90
31729;DHT22;18309;43.658;1.312;2023-12-04T10:15:28;9.30;99.90
31729;DHT22;18309;43.658;1.312;2023-12-04T10:17:54;9.40;99.90
31729;DHT22;18309;43.658;1.312;2023-12-04T10:20:20;9.40;99.90
31729;DHT22;18309;43.658;1.312;2023-12-04T10:22:58;9.50;99.90
31729;DHT22;18309;43.658;1.312;2023-12-04T10:25:26;9.60;99.90
31729;DHT22;18309;43.658;1.312;2023-12-04T10:27:54;9.80;99.90
31729;DHT22;18309;43.658;1.312;2023-12-04T10:30:28;9.80;99.90
31729;DHT22;18309;43.658;1.312;2023-12-04T10:33:01;9.80;99.90
31729;DHT22;18309;43.658;1.312;2023-12-04T10:35:31;9.80;99.90
31729;DHT22;18309;43.658;1.312;2023-12-04T10:37:57;9.90;99.90
31729;DHT22;18309;43.658;1.312;2023-12-04T10:40:32;10.00;99.90
31729;DHT22;18309;43.658;1.312;2023-12-04T10:43:24;10.10;99.90
31729;DHT22;18309;43.658;1.312;2023-12-04T10:45:50;10.20;99.90
31729;DHT22;18309;43.658;1.312;2023-12-04T10:48:18;10.30;99.90
31729;DHT22;18309;43.658;1.312;2023-12-04T10:50:46;10.40;99.90
31729;DHT22;18309;43.658;1.312;2023-12-04T10:53:13;10.50;99.90
31729;DHT22;18309;43.658;1.312;2023-12-04T10:55:40;10.50;99.90
31729;DHT22;18309;43.658;1.312;2023-12-04T10:58:10;10.60;99.90
31729;DHT22;18309;43.658;1.312;2023-12-04T11:00:46;10.80;99.90
31729;DHT22;18309;43.658;1.312;2023-12-04T11:03:40;10.90;99.90
31729;DHT22;18309;43.658;1.312;2023-12-04T11:06:06;11.00;99.90
31729;DHT22;18309;43.658;1.312;2023-12-04T11:08:35;11.10;99.90
31729;DHT22;18309;43.658;1.312;2023-12-04T11:11:03;11.30;99.90
31729;DHT22;18309;43.658;1.312;2023-12-04T11:13:30;11.40;99.90
31729;DHT22;18309;43.658;1.312;2023-12-04T11:16:18;11.70;99.90
31729;DHT22;18309;43.658;1.312;2023-12-04T11:18:51;11.80;99.90
31729;DHT22;18309;43.658;1.312;2023-12-04T11:21:20;11.70;99.90
31729;DHT22;18309;43.658;1.312;2023-12-04T11:23:47;11.70;99.90
31729;DHT22;18309;43.658;1.312;2023-12-04T11:26:14;11.70;99.90
31729;DHT22;18309;43.658;1.312;2023-12-04T11:28:40;11.70;99.90
31729;DHT22;18309;43.658;1.312;2023-12-04T11:31:07;11.70;99.90
31729;DHT22;18309;43.658;1.312;2023-12-04T11:33:37;11.70;99.90
31729;DHT22;18309;43.658;1.312;2023-12-04T11:38:33;11.70;99.90
31729;DHT22;18309;43.658;1.312;2023-12-04T11:40:59;11.80;99.90
31729;DHT22;18309;43.658;1.312;2023-12-04T11:43:28;11.80;99.90
31729;DHT22;18309;43.658;1.312;2023-12-04T11:46:09;11.90;99.90
31729;DHT22;18309;43.658;1.312;2023-12-04T11:48:38;12.00;99.90
31729;DHT22;18309;43.658;1.312;2023-12-04T11:51:07;12.00;99.90
31729;DHT22;18309;43.658;1.312;2023-12-04T11:53:38;12.00;99.90
31729;DHT22;18309;43.658;1.312;2023-12-04T11:56:11;12.00;99.90
31729;DHT22;18309;43.658;1.312;2023-12-04T11:58:44;12.00;99.90
31729;DHT22;18309;43.658;1.312;2023-12-04T12:01:10;11.90;99.90
31729;DHT22;18309;43.658;1.312;2023-12-04T12:03:36;11.90;99.90
31729;DHT22;18309;43.658;1.312;2023-12-04T12:06:03;11.90;99.90
31729;DHT22;18309;43.658;1.312;2023-12-04T12:08:29;11.90;99.90
31729;DHT22;18309;43.658;1.312;2023-12-04T12:10:55;11.90;99.90
31729;DHT22;18309;43.658;1.312;2023-12-04T12:13:23;11.90;99.90
31729;DHT22;18309;43.658;1.312;2023-12-04T12:15:51;11.90;99.90
31729;DHT22;18309;43.658;1.312;2023-12-04T12:18:17;11.90;99.90
31729;DHT22;18309;43.658;1.312;2023-12-04T12:20:43;11.80;99.90
31729;DHT22;18309;43.658;1.312;2023-12-04T12:23:09;11.80;99.90
31729;DHT22;18309;43.658;1.312;2023-12-04T12:25:35;11.70;99.90
31729;DHT22;18309;43.658;1.312;2023-12-04T12:28:04;11.70;99.90
31729;DHT22;18309;43.658;1.312;2023-12-04T12:30:30;11.70;99.90
31729;DHT22;18309;43.658;1.312;2023-12-04T12:32:57;11.70;99.90
31729;DHT22;18309;43.658;1.312;2023-12-04T12:35:23;11.70;99.90
31729;DHT22;18309;43.658;1.312;2023-12-04T12:37:50;11.70;99.90
31729;DHT22;18309;43.658;1.312;2023-12-04T12:40:23;11.70;99.90
31729;DHT22;18309;43.658;1.312;2023-12-04T12:42:48;11.70;99.90
31729;DHT22;18309;43.658;1.312;2023-12-04T12:45:17;11.70;99.90
31729;DHT22;18309;43.658;1.312;2023-12-04T12:47:43;11.70;99.90
31729;DHT22;18309;43.658;1.312;2023-12-04T12:50:09;11.80;99.90
31729;DHT22;18309;43.658;1.312;2023-12-04T12:52:37;11.80;99.90
31729;DHT22;18309;43.658;1.312;2023-12-04T12:55:03;11.80;99.90
31729;DHT22;18309;43.658;1.312;2023-12-04T12:57:30;11.80;99.90
31729;DHT22;18309;43.658;1.312;2023-12-04T12:59:57;11.80;99.90
31729;DHT22;18309;43.658;1.312;2023-12-04T13:02:23;11.80;99.90
31729;DHT22;18309;43.658;1.312;2023-12-04T13:04:50;11.80;99.90
31729;DHT22;18309;43.658;1.312;2023-12-04T13:07:16;11.90;99.90
31729;DHT22;18309;43.658;1.312;2023-12-04T13:09:43;11.90;99.90
31729;DHT22;18309;43.658;1.312;2023-12-04T13:12:09;11.90;99.90
31729;DHT22;18309;43.658;1.312;2023-12-04T13:14:36;11.90;99.90
31729;DHT22;18309;43.658;1.312;2023-12-04T13:17:02;11.90;99.90
31729;DHT22;18309;43.658;1.312;2023-12-04T13:19:28;11.90;99.90
31729;DHT22;18309;43.658;1.312;2023-12-04T13:21:54;11.90;99.90
31729;DHT22;18309;43.658;1.312;2023-12-04T13:24:19;11.90;99.90
31729;DHT22;18309;43.658;1.312;2023-12-04T13:26:46;11.80;99.90
31729;DHT22;18309;43.658;1.312;2023-12-04T13:29:12;11.70;99.90
31729;DHT22;18309;43.658;1.312;2023-12-04T13:31:41;11.70;99.90
31729;DHT22;18309;43.658;1.312;2023-12-04T13:34:08;11.60;99.90
31729;DHT22;18309;43.658;1.312;2023-12-04T13:36:34;11.60;99.90
31729;DHT22;18309;43.658;1.312;2023-12-04T13:39:01;11.50;99.90
31729;DHT22;18309;43.658;1.312;2023-12-04T13:41:30;11.50;99.90
31729;DHT22;18309;43.658;1.312;2023-12-04T13:44:14;11.50;99.90
31729;DHT22;18309;43.658;1.312;2023-12-04T13:46:40;11.40;99.90
31729;DHT22;18309;43.658;1.312;2023-12-04T13:49:07;11.40;99.90
31729;DHT22;18309;43.658;1.312;2023-12-04T13:51:33;11.40;99.90
31729;DHT22;18309;43.658;1.312;2023-12-04T13:54:00;11.40;99.90
31729;DHT22;18309;43.658;1.312;2023-12-04T13:56:40;11.40;99.90
31729;DHT22;18309;43.658;1.312;2023-12-04T13:59:18;11.40;99.90
31729;DHT22;18309;43.658;1.312;2023-12-04T14:01:45;11.40;99.90
31729;DHT22;18309;43.658;1.312;2023-12-04T14:04:12;11.40;99.90
31729;DHT22;18309;43.658;1.312;2023-12-04T14:06:37;11.40;99.90
31729;DHT22;18309;43.658;1.312;2023-12-04T14:09:03;11.40;99.90
31729;DHT22;18309;43.658;1.312;2023-12-04T14:11:45;11.40;99.90
31729;DHT22;18309;43.658;1.312;2023-12-04T14:14:11;11.40;99.90
31729;DHT22;18309;43.658;1.312;2023-12-04T14:16:38;11.40;99.90
31729;DHT22;18309;43.658;1.312;2023-12-04T14:19:04;11.40;99.90
31729;DHT22;18309;43.658;1.312;2023-12-04T14:21:30;11.50;99.90
31729;DHT22;18309;43.658;1.312;2023-12-04T14:23:56;11.50;99.90
31729;DHT22;18309;43.658;1.312;2023-12-04T14:26:21;11.50;99.90
31729;DHT22;18309;43.658;1.312;2023-12-04T14:28:47;11.50;99.90
31729;DHT22;18309;43.658;1.312;2023-12-04T14:31:12;11.50;99.90
31729;DHT22;18309;43.658;1.312;2023-12-04T14:33:38;11.50;99.90
31729;DHT22;18309;43.658;1.312;2023-12-04T14:36:04;11.50;99.90
31729;DHT22;18309;43.658;1.312;2023-12-04T14:38:30;11.60;99.90
31729;DHT22;18309;43.658;1.312;2023-12-04T14:40:56;11.50;99.90
31729;DHT22;18309;43.658;1.312;2023-12-04T14:43:21;11.50;99.90
31729;DHT22;18309;43.658;1.312;2023-12-04T14:45:48;11.50;99.90
31729;DHT22;18309;43.658;1.312;2023-12-04T14:48:14;11.60;99.90
31729;DHT22;18309;43.658;1.312;2023-12-04T14:50:39;11.60;99.90
31729;DHT22;18309;43.658;1.312;2023-12-04T14:53:05;11.60;99.90
31729;DHT22;18309;43.658;1.312;2023-12-04T14:55:49;11.50;99.90
31729;DHT22;18309;43.658;1.312;2023-12-04T14:58:33;11.50;99.90
31729;DHT22;18309;43.658;1.312;2023-12-04T15:01:11;11.50;99.90
31729;DHT22;18309;43.658;1.312;2023-12-04T15:03:55;11.60;99.90
31729;DHT22;18309;43.658;1.312;2023-12-04T15:06:40;11.40;99.90
31729;DHT22;18309;43.658;1.312;2023-12-04T15:09:11;11.20;99.90
31729;DHT22;18309;43.658;1.312;2023-12-04T15:11:55;11.10;99.90
31729;DHT22;18309;43.658;1.312;2023-12-04T15:14:39;11.00;99.90
31729;DHT22;18309;43.658;1.312;2023-12-04T15:17:14;10.90;99.90
31729;DHT22;18309;43.658;1.312;2023-12-04T15:20:09;10.80;99.90
31729;DHT22;18309;43.658;1.312;2023-12-04T15:22:35;10.80;99.90
31729;DHT22;18309;43.658;1.312;2023-12-04T15:25:03;10.80;99.90
31729;DHT22;18309;43.658;1.312;2023-12-04T15:27:29;10.70;99.90
31729;DHT22;18309;43.658;1.312;2023-12-04T15:29:54;10.70;99.90
31729;DHT22;18309;43.658;1.312;2023-12-04T15:32:20;10.80;99.90
31729;DHT22;18309;43.658;1.312;2023-12-04T15:34:46;10.80;99.90
31729;DHT22;18309;43.658;1.312;2023-12-04T15:37:12;10.80;99.90
31729;DHT22;18309;43.658;1.312;2023-12-04T15:39:37;10.80;99.90
31729;DHT22;18309;43.658;1.312;2023-12-04T15:42:03;10.80;99.90
31729;DHT22;18309;43.658;1.312;2023-12-04T15:44:32;10.80;99.90